sensor_id;sensor_type;location;lat;lon;timestamp;P1;durP1;ratioP1;P2;durP2;ratioP2
30681;SDS011;17439;48.092;11.842;2024-01-27T00:01:50;8.10;;;1.60;;
30681;SDS011;17439;48.092;11.842;2024-01-27T00:04:17;5.57;;;1.98;;
30681;SDS011;17439;48.092;11.842;2024-01-27T00:06:43;4.72;;;1.85;;
30681;SDS011;17439;48.092;11.842;2024-01-27T00:09:10;4.40;;;1.65;;
30681;SDS011;17439;48.092;11.842;2024-01-27T00:11:37;5.60;;;2.33;;
30681;SDS011;17439;48.092;11.842;2024-01-27T00:14:04;3.63;;;1.58;;
30681;SDS011;17439;48.092;11.842;2024-01-27T00:16:30;7.15;;;1.83;;
30681;SDS011;17439;48.092;11.842;2024-01-27T00:18:57;7.88;;;1.40;;
30681;SDS011;17439;48.092;11.842;2024-01-27T00:21:24;4.05;;;1.50;;
30681;SDS011;17439;48.092;11.842;2024-01-27T00:23:51;2.15;;;1.17;;
30681;SDS011;17439;48.092;11.842;2024-01-27T00:26:17;3.67;;;1.50;;
30681;SDS011;17439;48.092;11.842;2024-01-27T00:28:44;5.18;;;1.63;;
30681;SDS011;17439;48.092;11.842;2024-01-27T00:31:11;3.10;;;1.10;;
30681;SDS011;17439;48.092;11.842;2024-01-27T00:33:38;5.47;;;1.50;;
30681;SDS011;17439;48.092;11.842;2024-01-27T00:36:04;2.85;;;1.98;;
30681;SDS011;17439;48.092;11.842;2024-01-27T00:38:31;4.70;;;1.13;;
30681;SDS011;17439;48.092;11.842;2024-01-27T00:40:58;2.47;;;1.15;;
30681;SDS011;17439;48.092;11.842;2024-01-27T00:43:25;6.28;;;1.23;;
30681;SDS011;17439;48.092;11.842;2024-01-27T00:45:52;4.20;;;2.25;;
30681;SDS011;17439;48.092;11.842;2024-01-27T00:48:18;4.05;;;1.92;;
30681;SDS011;17439;48.092;11.842;2024-01-27T00:50:45;10.13;;;2.17;;
30681;SDS011;17439;48.092;11.842;2024-01-27T00:53:12;6.63;;;1.63;;
30681;SDS011;17439;48.092;11.842;2024-01-27T00:55:39;9.77;;;2.72;;
30681;SDS011;17439;48.092;11.842;2024-01-27T00:58:06;4.50;;;1.52;;
30681;SDS011;17439;48.092;11.842;2024-01-27T01:00:33;2.55;;;1.50;;
30681;SDS011;17439;48.092;11.842;2024-01-27T01:03:00;7.80;;;1.98;;
30681;SDS011;17439;48.092;11.842;2024-01-27T01:05:27;1.95;;;1.20;;
30681;SDS011;17439;48.092;11.842;2024-01-27T01:07:53;1.90;;;1.35;;
30681;SDS011;17439;48.092;11.842;2024-01-27T01:10:20;3.40;;;1.73;;
30681;SDS011;17439;48.092;11.842;2024-01-27T01:12:47;2.75;;;1.20;;
30681;SDS011;17439;48.092;11.842;2024-01-27T01:15:14;2.35;;;1.60;;
30681;SDS011;17439;48.092;11.842;2024-01-27T01:17:41;3.22;;;1.52;;
30681;SDS011;17439;48.092;11.842;2024-01-27T01:20:10;4.93;;;1.80;;
30681;SDS011;17439;48.092;11.842;2024-01-27T01:22:37;5.35;;;1.40;;
30681;SDS011;17439;48.092;11.842;2024-01-27T01:25:04;3.50;;;1.42;;
30681;SDS011;17439;48.092;11.842;2024-01-27T01:27:31;2.50;;;1.10;;
30681;SDS011;17439;48.092;11.842;2024-01-27T01:29:58;6.95;;;2.38;;
30681;SDS011;17439;48.092;11.842;2024-01-27T01:32:25;2.05;;;1.35;;
30681;SDS011;17439;48.092;11.842;2024-01-27T01:34:51;5.88;;;2.30;;
30681;SDS011;17439;48.092;11.842;2024-01-27T01:37:18;3.78;;;1.73;;
30681;SDS011;17439;48.092;11.842;2024-01-27T01:39:45;4.68;;;2.00;;
30681;SDS011;17439;48.092;11.842;2024-01-27T01:42:12;3.90;;;1.30;;
30681;SDS011;17439;48.092;11.842;2024-01-27T01:44:38;3.50;;;1.77;;
30681;SDS011;17439;48.092;11.842;2024-01-27T01:47:05;2.75;;;1.35;;
30681;SDS011;17439;48.092;11.842;2024-01-27T01:49:34;5.22;;;2.33;;
30681;SDS011;17439;48.092;11.842;2024-01-27T01:52:02;2.42;;;1.65;;
30681;SDS011;17439;48.092;11.842;2024-01-27T01:54:29;3.00;;;1.30;;
30681;SDS011;17439;48.092;11.842;2024-01-27T01:56:57;2.80;;;1.20;;
30681;SDS011;17439;48.092;11.842;2024-01-27T01:59:25;2.88;;;1.88;;
30681;SDS011;17439;48.092;11.842;2024-01-27T02:01:52;2.90;;;1.20;;
30681;SDS011;17439;48.092;11.842;2024-01-27T02:04:18;6.75;;;1.50;;
30681;SDS011;17439;48.092;11.842;2024-01-27T02:06:45;4.70;;;1.65;;
30681;SDS011;17439;48.092;11.842;2024-01-27T02:09:12;4.88;;;1.80;;
30681;SDS011;17439;48.092;11.842;2024-01-27T02:11:39;3.85;;;1.60;;
30681;SDS011;17439;48.092;11.842;2024-01-27T02:14:07;7.15;;;1.88;;
30681;SDS011;17439;48.092;11.842;2024-01-27T02:16:34;4.43;;;1.42;;
30681;SDS011;17439;48.092;11.842;2024-01-27T02:19:01;3.45;;;1.20;;
30681;SDS011;17439;48.092;11.842;2024-01-27T02:21:28;2.65;;;1.20;;
30681;SDS011;17439;48.092;11.842;2024-01-27T02:23:54;3.10;;;1.55;;
30681;SDS011;17439;48.092;11.842;2024-01-27T02:26:21;5.65;;;1.38;;
30681;SDS011;17439;48.092;11.842;2024-01-27T02:28:48;3.08;;;1.35;;
30681;SDS011;17439;48.092;11.842;2024-01-27T02:31:15;9.75;;;1.63;;
30681;SDS011;17439;48.092;11.842;2024-01-27T02:33:41;3.40;;;1.40;;
30681;SDS011;17439;48.092;11.842;2024-01-27T02:36:08;5.05;;;1.67;;
30681;SDS011;17439;48.092;11.842;2024-01-27T02:38:35;5.72;;;2.08;;
30681;SDS011;17439;48.092;11.842;2024-01-27T02:41:02;6.78;;;1.60;;
30681;SDS011;17439;48.092;11.842;2024-01-27T02:43:29;4.32;;;1.50;;
30681;SDS011;17439;48.092;11.842;2024-01-27T02:45:55;10.02;;;1.65;;
30681;SDS011;17439;48.092;11.842;2024-01-27T02:48:22;4.40;;;2.55;;
30681;SDS011;17439;48.092;11.842;2024-01-27T02:50:49;4.10;;;1.92;;
30681;SDS011;17439;48.092;11.842;2024-01-27T02:53:16;7.18;;;1.85;;
30681;SDS011;17439;48.092;11.842;2024-01-27T02:55:42;14.98;;;2.08;;
30681;SDS011;17439;48.092;11.842;2024-01-27T02:58:09;6.55;;;2.15;;
30681;SDS011;17439;48.092;11.842;2024-01-27T03:00:36;3.05;;;1.23;;
30681;SDS011;17439;48.092;11.842;2024-01-27T03:03:03;4.78;;;1.92;;
30681;SDS011;17439;48.092;11.842;2024-01-27T03:05:30;6.27;;;1.37;;
30681;SDS011;17439;48.092;11.842;2024-01-27T03:07:57;5.40;;;1.38;;
30681;SDS011;17439;48.092;11.842;2024-01-27T03:10:24;6.03;;;1.80;;
30681;SDS011;17439;48.092;11.842;2024-01-27T03:12:50;5.95;;;1.60;;
30681;SDS011;17439;48.092;11.842;2024-01-27T03:15:17;4.03;;;2.30;;
30681;SDS011;17439;48.092;11.842;2024-01-27T03:17:44;3.50;;;1.13;;
30681;SDS011;17439;48.092;11.842;2024-01-27T03:20:11;6.15;;;1.65;;
30681;SDS011;17439;48.092;11.842;2024-01-27T03:22:37;3.05;;;1.30;;
30681;SDS011;17439;48.092;11.842;2024-01-27T03:25:04;2.92;;;1.50;;
30681;SDS011;17439;48.092;11.842;2024-01-27T03:27:32;6.15;;;2.65;;
30681;SDS011;17439;48.092;11.842;2024-01-27T03:30:00;6.32;;;2.35;;
30681;SDS011;17439;48.092;11.842;2024-01-27T03:32:27;2.58;;;0.95;;
30681;SDS011;17439;48.092;11.842;2024-01-27T03:34:54;2.67;;;1.05;;
30681;SDS011;17439;48.092;11.842;2024-01-27T03:37:21;4.30;;;1.20;;
30681;SDS011;17439;48.092;11.842;2024-01-27T03:39:48;2.38;;;1.48;;
30681;SDS011;17439;48.092;11.842;2024-01-27T03:42:15;5.25;;;1.90;;
30681;SDS011;17439;48.092;11.842;2024-01-27T03:44:42;3.45;;;1.98;;
30681;SDS011;17439;48.092;11.842;2024-01-27T03:47:09;3.38;;;1.50;;
30681;SDS011;17439;48.092;11.842;2024-01-27T03:49:35;3.95;;;1.50;;
30681;SDS011;17439;48.092;11.842;2024-01-27T03:52:04;10.02;;;1.85;;
30681;SDS011;17439;48.092;11.842;2024-01-27T03:54:31;4.57;;;2.05;;
30681;SDS011;17439;48.092;11.842;2024-01-27T03:56:58;3.75;;;1.77;;
30681;SDS011;17439;48.092;11.842;2024-01-27T03:59:25;3.22;;;1.17;;
30681;SDS011;17439;48.092;11.842;2024-01-27T04:01:51;4.07;;;0.93;;
30681;SDS011;17439;48.092;11.842;2024-01-27T04:04:18;2.50;;;1.25;;
30681;SDS011;17439;48.092;11.842;2024-01-27T04:06:45;3.35;;;1.73;;
30681;SDS011;17439;48.092;11.842;2024-01-27T04:09:12;3.13;;;1.48;;
30681;SDS011;17439;48.092;11.842;2024-01-27T04:11:39;5.13;;;1.83;;
30681;SDS011;17439;48.092;11.842;2024-01-27T04:14:05;4.72;;;1.45;;
30681;SDS011;17439;48.092;11.842;2024-01-27T04:16:32;4.35;;;1.85;;
30681;SDS011;17439;48.092;11.842;2024-01-27T04:18:59;2.03;;;1.10;;
30681;SDS011;17439;48.092;11.842;2024-01-27T04:21:26;1.63;;;1.20;;
30681;SDS011;17439;48.092;11.842;2024-01-27T04:23:53;3.17;;;1.38;;
30681;SDS011;17439;48.092;11.842;2024-01-27T04:26:19;1.85;;;1.00;;
30681;SDS011;17439;48.092;11.842;2024-01-27T04:28:46;3.30;;;1.67;;
30681;SDS011;17439;48.092;11.842;2024-01-27T04:31:13;3.30;;;1.65;;
30681;SDS011;17439;48.092;11.842;2024-01-27T04:33:39;3.63;;;1.30;;
30681;SDS011;17439;48.092;11.842;2024-01-27T04:36:07;5.00;;;1.10;;
30681;SDS011;17439;48.092;11.842;2024-01-27T04:38:33;5.15;;;1.65;;
30681;SDS011;17439;48.092;11.842;2024-01-27T04:41:00;5.45;;;1.33;;
30681;SDS011;17439;48.092;11.842;2024-01-27T04:43:27;6.83;;;2.90;;
30681;SDS011;17439;48.092;11.842;2024-01-27T04:45:54;2.53;;;1.27;;
30681;SDS011;17439;48.092;11.842;2024-01-27T04:48:21;5.05;;;1.40;;
30681;SDS011;17439;48.092;11.842;2024-01-27T04:50:48;2.92;;;1.50;;
30681;SDS011;17439;48.092;11.842;2024-01-27T04:53:15;3.60;;;1.40;;
30681;SDS011;17439;48.092;11.842;2024-01-27T04:55:41;5.15;;;1.58;;
30681;SDS011;17439;48.092;11.842;2024-01-27T04:58:08;5.93;;;1.55;;
30681;SDS011;17439;48.092;11.842;2024-01-27T05:00:35;4.47;;;2.03;;
30681;SDS011;17439;48.092;11.842;2024-01-27T05:03:02;5.72;;;1.40;;
30681;SDS011;17439;48.092;11.842;2024-01-27T05:05:29;4.30;;;1.23;;
30681;SDS011;17439;48.092;11.842;2024-01-27T05:07:59;2.00;;;1.30;;
30681;SDS011;17439;48.092;11.842;2024-01-27T05:10:26;5.57;;;1.63;;
30681;SDS011;17439;48.092;11.842;2024-01-27T05:12:52;2.70;;;1.52;;
30681;SDS011;17439;48.092;11.842;2024-01-27T05:15:19;3.63;;;1.27;;
30681;SDS011;17439;48.092;11.842;2024-01-27T05:17:46;3.15;;;1.20;;
30681;SDS011;17439;48.092;11.842;2024-01-27T05:20:13;5.68;;;2.10;;
30681;SDS011;17439;48.092;11.842;2024-01-27T05:22:40;3.88;;;1.55;;
30681;SDS011;17439;48.092;11.842;2024-01-27T05:25:06;2.25;;;1.20;;
30681;SDS011;17439;48.092;11.842;2024-01-27T05:27:33;2.95;;;1.42;;
30681;SDS011;17439;48.092;11.842;2024-01-27T05:30:00;2.13;;;1.08;;
30681;SDS011;17439;48.092;11.842;2024-01-27T05:32:27;3.17;;;0.95;;
30681;SDS011;17439;48.092;11.842;2024-01-27T05:34:54;12.52;;;1.77;;
30681;SDS011;17439;48.092;11.842;2024-01-27T05:37:20;2.63;;;1.30;;
30681;SDS011;17439;48.092;11.842;2024-01-27T05:39:47;6.18;;;2.00;;
30681;SDS011;17439;48.092;11.842;2024-01-27T05:42:14;3.30;;;2.08;;
30681;SDS011;17439;48.092;11.842;2024-01-27T05:44:41;5.60;;;1.55;;
30681;SDS011;17439;48.092;11.842;2024-01-27T05:47:07;2.90;;;1.40;;
30681;SDS011;17439;48.092;11.842;2024-01-27T05:49:37;1.88;;;1.08;;
30681;SDS011;17439;48.092;11.842;2024-01-27T05:52:05;5.20;;;1.88;;
30681;SDS011;17439;48.092;11.842;2024-01-27T05:54:31;5.90;;;1.25;;
30681;SDS011;17439;48.092;11.842;2024-01-27T05:56:58;3.00;;;0.95;;
30681;SDS011;17439;48.092;11.842;2024-01-27T05:59:25;3.65;;;1.15;;
30681;SDS011;17439;48.092;11.842;2024-01-27T06:01:52;2.22;;;1.23;;
30681;SDS011;17439;48.092;11.842;2024-01-27T06:04:19;3.20;;;1.45;;
30681;SDS011;17439;48.092;11.842;2024-01-27T06:06:45;4.15;;;1.38;;
30681;SDS011;17439;48.092;11.842;2024-01-27T06:09:12;5.13;;;1.33;;
30681;SDS011;17439;48.092;11.842;2024-01-27T06:11:39;5.53;;;1.20;;
30681;SDS011;17439;48.092;11.842;2024-01-27T06:14:06;3.78;;;1.58;;
30681;SDS011;17439;48.092;11.842;2024-01-27T06:16:33;5.65;;;1.85;;
30681;SDS011;17439;48.092;11.842;2024-01-27T06:18:59;1.33;;;1.00;;
30681;SDS011;17439;48.092;11.842;2024-01-27T06:21:26;4.82;;;1.10;;
30681;SDS011;17439;48.092;11.842;2024-01-27T06:23:53;6.07;;;1.63;;
30681;SDS011;17439;48.092;11.842;2024-01-27T06:26:20;1.70;;;1.45;;
30681;SDS011;17439;48.092;11.842;2024-01-27T06:28:46;4.78;;;1.30;;
30681;SDS011;17439;48.092;11.842;2024-01-27T06:31:15;3.15;;;1.02;;
30681;SDS011;17439;48.092;11.842;2024-01-27T06:33:42;2.70;;;1.55;;
30681;SDS011;17439;48.092;11.842;2024-01-27T06:36:09;3.67;;;1.35;;
30681;SDS011;17439;48.092;11.842;2024-01-27T06:38:37;5.03;;;1.75;;
30681;SDS011;17439;48.092;11.842;2024-01-27T06:41:04;2.38;;;1.50;;
30681;SDS011;17439;48.092;11.842;2024-01-27T06:43:31;2.30;;;1.27;;
30681;SDS011;17439;48.092;11.842;2024-01-27T06:45:57;4.45;;;1.23;;
30681;SDS011;17439;48.092;11.842;2024-01-27T06:48:24;2.58;;;1.35;;
30681;SDS011;17439;48.092;11.842;2024-01-27T06:50:51;3.33;;;1.45;;
30681;SDS011;17439;48.092;11.842;2024-01-27T06:53:18;4.72;;;1.65;;
30681;SDS011;17439;48.092;11.842;2024-01-27T06:55:45;8.57;;;2.70;;
30681;SDS011;17439;48.092;11.842;2024-01-27T06:58:12;4.93;;;1.13;;
30681;SDS011;17439;48.092;11.842;2024-01-27T07:00:39;3.78;;;1.23;;
30681;SDS011;17439;48.092;11.842;2024-01-27T07:03:08;2.53;;;1.10;;
30681;SDS011;17439;48.092;11.842;2024-01-27T07:05:39;4.78;;;2.10;;
30681;SDS011;17439;48.092;11.842;2024-01-27T07:08:06;6.18;;;1.70;;
30681;SDS011;17439;48.092;11.842;2024-01-27T07:10:34;5.05;;;1.70;;
30681;SDS011;17439;48.092;11.842;2024-01-27T07:13:01;3.72;;;2.10;;
30681;SDS011;17439;48.092;11.842;2024-01-27T07:15:28;4.75;;;2.40;;
30681;SDS011;17439;48.092;11.842;2024-01-27T07:17:55;5.28;;;3.50;;
30681;SDS011;17439;48.092;11.842;2024-01-27T07:20:22;8.13;;;3.22;;
30681;SDS011;17439;48.092;11.842;2024-01-27T07:22:48;8.65;;;2.97;;
30681;SDS011;17439;48.092;11.842;2024-01-27T07:25:15;5.60;;;2.80;;
30681;SDS011;17439;48.092;11.842;2024-01-27T07:27:42;5.00;;;2.35;;
30681;SDS011;17439;48.092;11.842;2024-01-27T07:30:09;5.90;;;2.20;;
30681;SDS011;17439;48.092;11.842;2024-01-27T07:32:36;9.63;;;2.47;;
30681;SDS011;17439;48.092;11.842;2024-01-27T07:35:03;4.38;;;2.35;;
30681;SDS011;17439;48.092;11.842;2024-01-27T07:37:30;5.28;;;2.03;;
30681;SDS011;17439;48.092;11.842;2024-01-27T07:39:57;7.65;;;2.17;;
30681;SDS011;17439;48.092;11.842;2024-01-27T07:42:24;3.50;;;2.10;;
30681;SDS011;17439;48.092;11.842;2024-01-27T07:44:50;6.40;;;2.10;;
30681;SDS011;17439;48.092;11.842;2024-01-27T07:47:17;4.20;;;2.13;;
30681;SDS011;17439;48.092;11.842;2024-01-27T07:49:44;5.43;;;2.30;;
30681;SDS011;17439;48.092;11.842;2024-01-27T07:52:11;5.38;;;2.28;;
30681;SDS011;17439;48.092;11.842;2024-01-27T07:54:38;3.67;;;1.92;;
30681;SDS011;17439;48.092;11.842;2024-01-27T07:57:04;4.85;;;2.20;;
30681;SDS011;17439;48.092;11.842;2024-01-27T07:59:31;5.15;;;2.13;;
30681;SDS011;17439;48.092;11.842;2024-01-27T08:01:59;5.88;;;2.15;;
30681;SDS011;17439;48.092;11.842;2024-01-27T08:04:26;7.97;;;2.63;;
30681;SDS011;17439;48.092;11.842;2024-01-27T08:06:52;4.20;;;2.17;;
30681;SDS011;17439;48.092;11.842;2024-01-27T08:09:19;3.78;;;1.75;;
30681;SDS011;17439;48.092;11.842;2024-01-27T08:11:46;4.82;;;2.50;;
30681;SDS011;17439;48.092;11.842;2024-01-27T08:14:13;5.97;;;2.42;;
30681;SDS011;17439;48.092;11.842;2024-01-27T08:16:40;4.60;;;2.40;;
30681;SDS011;17439;48.092;11.842;2024-01-27T08:19:07;5.82;;;2.50;;
30681;SDS011;17439;48.092;11.842;2024-01-27T08:21:34;5.63;;;2.00;;
30681;SDS011;17439;48.092;11.842;2024-01-27T08:24:00;5.00;;;2.60;;
30681;SDS011;17439;48.092;11.842;2024-01-27T08:26:27;6.65;;;2.83;;
30681;SDS011;17439;48.092;11.842;2024-01-27T08:28:54;3.67;;;2.15;;
30681;SDS011;17439;48.092;11.842;2024-01-27T08:31:21;9.80;;;2.28;;
30681;SDS011;17439;48.092;11.842;2024-01-27T08:33:47;6.80;;;2.75;;
30681;SDS011;17439;48.092;11.842;2024-01-27T08:36:14;4.63;;;3.30;;
30681;SDS011;17439;48.092;11.842;2024-01-27T08:38:41;8.90;;;2.33;;
30681;SDS011;17439;48.092;11.842;2024-01-27T08:41:08;4.10;;;2.50;;
30681;SDS011;17439;48.092;11.842;2024-01-27T08:43:36;11.90;;;3.83;;
30681;SDS011;17439;48.092;11.842;2024-01-27T08:46:03;6.35;;;2.30;;
30681;SDS011;17439;48.092;11.842;2024-01-27T08:48:30;3.22;;;2.03;;
30681;SDS011;17439;48.092;11.842;2024-01-27T08:50:57;7.00;;;2.45;;
30681;SDS011;17439;48.092;11.842;2024-01-27T08:53:24;8.43;;;2.63;;
30681;SDS011;17439;48.092;11.842;2024-01-27T08:55:50;7.70;;;2.50;;
30681;SDS011;17439;48.092;11.842;2024-01-27T08:58:17;7.20;;;2.88;;
30681;SDS011;17439;48.092;11.842;2024-01-27T09:00:44;13.27;;;3.22;;
30681;SDS011;17439;48.092;11.842;2024-01-27T09:03:11;7.15;;;2.42;;
30681;SDS011;17439;48.092;11.842;2024-01-27T09:05:38;7.55;;;2.90;;
30681;SDS011;17439;48.092;11.842;2024-01-27T09:08:04;6.38;;;2.95;;
30681;SDS011;17439;48.092;11.842;2024-01-27T09:10:31;7.28;;;2.15;;
30681;SDS011;17439;48.092;11.842;2024-01-27T09:12:58;6.82;;;2.58;;
30681;SDS011;17439;48.092;11.842;2024-01-27T09:15:24;7.65;;;2.90;;
30681;SDS011;17439;48.092;11.842;2024-01-27T09:17:51;14.38;;;4.32;;
30681;SDS011;17439;48.092;11.842;2024-01-27T09:20:19;10.82;;;3.28;;
30681;SDS011;17439;48.092;11.842;2024-01-27T09:22:46;8.05;;;3.20;;
30681;SDS011;17439;48.092;11.842;2024-01-27T09:25:13;11.00;;;3.83;;
30681;SDS011;17439;48.092;11.842;2024-01-27T09:27:40;14.52;;;4.80;;
30681;SDS011;17439;48.092;11.842;2024-01-27T09:30:07;13.52;;;4.10;;
30681;SDS011;17439;48.092;11.842;2024-01-27T09:32:34;8.00;;;3.63;;
30681;SDS011;17439;48.092;11.842;2024-01-27T09:35:01;11.00;;;4.60;;
30681;SDS011;17439;48.092;11.842;2024-01-27T09:37:28;7.75;;;3.85;;
30681;SDS011;17439;48.092;11.842;2024-01-27T09:39:55;20.77;;;4.53;;
30681;SDS011;17439;48.092;11.842;2024-01-27T09:42:21;10.95;;;5.03;;
30681;SDS011;17439;48.092;11.842;2024-01-27T09:44:48;15.13;;;5.97;;
30681;SDS011;17439;48.092;11.842;2024-01-27T09:47:16;11.20;;;4.50;;
30681;SDS011;17439;48.092;11.842;2024-01-27T09:49:43;12.00;;;4.22;;
30681;SDS011;17439;48.092;11.842;2024-01-27T09:52:11;10.75;;;3.95;;
30681;SDS011;17439;48.092;11.842;2024-01-27T09:54:37;11.23;;;4.60;;
30681;SDS011;17439;48.092;11.842;2024-01-27T09:57:07;13.60;;;4.40;;
30681;SDS011;17439;48.092;11.842;2024-01-27T09:59:36;9.55;;;3.42;;
30681;SDS011;17439;48.092;11.842;2024-01-27T10:02:03;11.93;;;5.00;;
30681;SDS011;17439;48.092;11.842;2024-01-27T10:04:32;8.85;;;3.60;;
30681;SDS011;17439;48.092;11.842;2024-01-27T10:06:59;10.00;;;3.67;;
30681;SDS011;17439;48.092;11.842;2024-01-27T10:09:26;16.35;;;5.68;;
30681;SDS011;17439;48.092;11.842;2024-01-27T10:11:53;15.63;;;5.90;;
30681;SDS011;17439;48.092;11.842;2024-01-27T10:14:21;11.15;;;4.80;;
30681;SDS011;17439;48.092;11.842;2024-01-27T10:16:48;14.55;;;4.13;;
30681;SDS011;17439;48.092;11.842;2024-01-27T10:19:16;19.58;;;5.40;;
30681;SDS011;17439;48.092;11.842;2024-01-27T10:21:44;11.20;;;4.75;;
30681;SDS011;17439;48.092;11.842;2024-01-27T10:26:39;15.32;;;6.05;;
30681;SDS011;17439;48.092;11.842;2024-01-27T10:29:06;15.38;;;5.57;;
30681;SDS011;17439;48.092;11.842;2024-01-27T10:31:36;46.00;;;7.07;;
30681;SDS011;17439;48.092;11.842;2024-01-27T10:34:03;12.25;;;5.70;;
30681;SDS011;17439;48.092;11.842;2024-01-27T10:36:39;10.93;;;4.78;;
30681;SDS011;17439;48.092;11.842;2024-01-27T10:39:22;11.50;;;4.90;;
30681;SDS011;17439;48.092;11.842;2024-01-27T10:41:50;9.40;;;3.83;;
30681;SDS011;17439;48.092;11.842;2024-01-27T10:44:18;9.80;;;4.75;;
30681;SDS011;17439;48.092;11.842;2024-01-27T10:46:46;11.10;;;4.93;;
30681;SDS011;17439;48.092;11.842;2024-01-27T10:49:15;14.45;;;4.60;;
30681;SDS011;17439;48.092;11.842;2024-01-27T10:51:48;14.82;;;5.88;;
30681;SDS011;17439;48.092;11.842;2024-01-27T10:54:23;13.80;;;5.25;;
30681;SDS011;17439;48.092;11.842;2024-01-27T10:56:55;11.45;;;4.80;;
30681;SDS011;17439;48.092;11.842;2024-01-27T10:59:23;11.77;;;5.07;;
30681;SDS011;17439;48.092;11.842;2024-01-27T11:01:53;11.32;;;4.25;;
30681;SDS011;17439;48.092;11.842;2024-01-27T11:04:20;9.07;;;4.68;;
30681;SDS011;17439;48.092;11.842;2024-01-27T11:06:48;16.48;;;5.18;;
30681;SDS011;17439;48.092;11.842;2024-01-27T11:09:15;22.48;;;5.45;;
30681;SDS011;17439;48.092;11.842;2024-01-27T11:11:45;14.65;;;4.95;;
30681;SDS011;17439;48.092;11.842;2024-01-27T11:14:13;16.98;;;3.83;;
30681;SDS011;17439;48.092;11.842;2024-01-27T11:16:40;13.43;;;4.05;;
30681;SDS011;17439;48.092;11.842;2024-01-27T11:19:07;10.38;;;5.03;;
30681;SDS011;17439;48.092;11.842;2024-01-27T11:21:34;9.88;;;4.55;;
30681;SDS011;17439;48.092;11.842;2024-01-27T11:24:00;11.57;;;5.80;;
30681;SDS011;17439;48.092;11.842;2024-01-27T11:26:27;7.82;;;3.88;;
30681;SDS011;17439;48.092;11.842;2024-01-27T11:29:05;16.40;;;3.97;;
30681;SDS011;17439;48.092;11.842;2024-01-27T11:31:32;13.02;;;4.40;;
30681;SDS011;17439;48.092;11.842;2024-01-27T11:33:59;14.57;;;3.80;;
30681;SDS011;17439;48.092;11.842;2024-01-27T11:36:26;6.82;;;3.72;;
30681;SDS011;17439;48.092;11.842;2024-01-27T11:38:53;10.05;;;3.72;;
30681;SDS011;17439;48.092;11.842;2024-01-27T11:41:24;9.15;;;3.97;;
30681;SDS011;17439;48.092;11.842;2024-01-27T11:43:52;15.38;;;4.72;;
30681;SDS011;17439;48.092;11.842;2024-01-27T11:46:19;11.18;;;5.18;;
30681;SDS011;17439;48.092;11.842;2024-01-27T11:48:46;8.02;;;4.03;;
30681;SDS011;17439;48.092;11.842;2024-01-27T11:51:14;10.85;;;4.57;;
30681;SDS011;17439;48.092;11.842;2024-01-27T11:53:41;13.30;;;4.80;;
30681;SDS011;17439;48.092;11.842;2024-01-27T11:56:07;7.13;;;3.55;;
30681;SDS011;17439;48.092;11.842;2024-01-27T11:58:35;11.93;;;3.28;;
30681;SDS011;17439;48.092;11.842;2024-01-27T12:01:01;10.45;;;3.80;;
30681;SDS011;17439;48.092;11.842;2024-01-27T12:03:29;9.05;;;4.00;;
30681;SDS011;17439;48.092;11.842;2024-01-27T12:05:56;10.20;;;4.18;;
30681;SDS011;17439;48.092;11.842;2024-01-27T12:08:23;8.60;;;4.00;;
30681;SDS011;17439;48.092;11.842;2024-01-27T12:10:50;12.55;;;5.38;;
30681;SDS011;17439;48.092;11.842;2024-01-27T12:13:18;13.07;;;3.85;;
30681;SDS011;17439;48.092;11.842;2024-01-27T12:15:44;5.15;;;3.08;;
30681;SDS011;17439;48.092;11.842;2024-01-27T12:18:11;13.40;;;3.28;;
30681;SDS011;17439;48.092;11.842;2024-01-27T12:20:38;7.20;;;3.40;;
30681;SDS011;17439;48.092;11.842;2024-01-27T12:23:06;16.23;;;2.83;;
30681;SDS011;17439;48.092;11.842;2024-01-27T12:25:33;10.20;;;3.58;;
30681;SDS011;17439;48.092;11.842;2024-01-27T12:28:04;11.40;;;3.35;;
30681;SDS011;17439;48.092;11.842;2024-01-27T12:30:32;6.00;;;2.50;;
30681;SDS011;17439;48.092;11.842;2024-01-27T12:32:59;14.00;;;3.10;;
30681;SDS011;17439;48.092;11.842;2024-01-27T12:35:28;7.28;;;3.88;;
30681;SDS011;17439;48.092;11.842;2024-01-27T12:40:22;9.07;;;2.83;;
30681;SDS011;17439;48.092;11.842;2024-01-27T12:45:17;4.97;;;2.83;;
30681;SDS011;17439;48.092;11.842;2024-01-27T12:47:43;8.18;;;2.72;;
30681;SDS011;17439;48.092;11.842;2024-01-27T12:50:11;6.70;;;2.35;;
30681;SDS011;17439;48.092;11.842;2024-01-27T12:52:38;4.72;;;2.33;;
30681;SDS011;17439;48.092;11.842;2024-01-27T12:55:05;16.30;;;3.78;;
30681;SDS011;17439;48.092;11.842;2024-01-27T12:57:32;9.00;;;4.68;;
30681;SDS011;17439;48.092;11.842;2024-01-27T12:59:59;16.98;;;4.65;;
30681;SDS011;17439;48.092;11.842;2024-01-27T13:02:26;9.98;;;4.13;;
30681;SDS011;17439;48.092;11.842;2024-01-27T13:04:52;11.50;;;4.30;;
30681;SDS011;17439;48.092;11.842;2024-01-27T13:07:19;7.40;;;4.13;;
30681;SDS011;17439;48.092;11.842;2024-01-27T13:09:46;12.02;;;4.88;;
30681;SDS011;17439;48.092;11.842;2024-01-27T13:12:12;15.20;;;4.97;;
30681;SDS011;17439;48.092;11.842;2024-01-27T13:14:39;18.25;;;5.35;;
30681;SDS011;17439;48.092;11.842;2024-01-27T13:17:06;15.13;;;5.00;;
30681;SDS011;17439;48.092;11.842;2024-01-27T13:19:33;9.13;;;4.13;;
30681;SDS011;17439;48.092;11.842;2024-01-27T13:22:00;11.38;;;4.78;;
30681;SDS011;17439;48.092;11.842;2024-01-27T13:24:27;23.05;;;7.57;;
30681;SDS011;17439;48.092;11.842;2024-01-27T13:26:54;14.98;;;5.25;;
30681;SDS011;17439;48.092;11.842;2024-01-27T13:29:21;12.18;;;5.03;;
30681;SDS011;17439;48.092;11.842;2024-01-27T13:31:48;17.48;;;4.47;;
30681;SDS011;17439;48.092;11.842;2024-01-27T13:34:15;6.20;;;3.20;;
30681;SDS011;17439;48.092;11.842;2024-01-27T13:36:42;13.45;;;4.82;;
30681;SDS011;17439;48.092;11.842;2024-01-27T13:39:09;9.93;;;3.88;;
30681;SDS011;17439;48.092;11.842;2024-01-27T13:41:36;9.15;;;3.20;;
30681;SDS011;17439;48.092;11.842;2024-01-27T13:44:02;9.00;;;3.60;;
30681;SDS011;17439;48.092;11.842;2024-01-27T13:46:29;8.80;;;2.92;;
30681;SDS011;17439;48.092;11.842;2024-01-27T13:48:56;7.80;;;3.83;;
30681;SDS011;17439;48.092;11.842;2024-01-27T13:51:23;10.27;;;3.00;;
30681;SDS011;17439;48.092;11.842;2024-01-27T13:53:50;7.32;;;2.95;;
30681;SDS011;17439;48.092;11.842;2024-01-27T13:56:16;7.60;;;2.92;;
30681;SDS011;17439;48.092;11.842;2024-01-27T13:58:43;8.70;;;3.28;;
30681;SDS011;17439;48.092;11.842;2024-01-27T14:01:10;8.73;;;3.60;;
30681;SDS011;17439;48.092;11.842;2024-01-27T14:03:37;6.47;;;3.08;;
30681;SDS011;17439;48.092;11.842;2024-01-27T14:06:05;10.80;;;3.25;;
30681;SDS011;17439;48.092;11.842;2024-01-27T14:08:32;7.57;;;2.47;;
30681;SDS011;17439;48.092;11.842;2024-01-27T14:10:59;12.88;;;3.65;;
30681;SDS011;17439;48.092;11.842;2024-01-27T14:13:26;6.70;;;3.17;;
30681;SDS011;17439;48.092;11.842;2024-01-27T14:15:53;13.27;;;4.78;;
30681;SDS011;17439;48.092;11.842;2024-01-27T14:18:19;9.15;;;2.50;;
30681;SDS011;17439;48.092;11.842;2024-01-27T14:20:47;8.93;;;2.63;;
30681;SDS011;17439;48.092;11.842;2024-01-27T14:23:14;16.45;;;3.63;;
30681;SDS011;17439;48.092;11.842;2024-01-27T14:25:41;11.23;;;3.78;;
30681;SDS011;17439;48.092;11.842;2024-01-27T14:28:12;7.82;;;2.83;;
30681;SDS011;17439;48.092;11.842;2024-01-27T14:30:39;10.13;;;3.15;;
30681;SDS011;17439;48.092;11.842;2024-01-27T14:33:05;7.25;;;3.20;;
30681;SDS011;17439;48.092;11.842;2024-01-27T14:35:32;13.85;;;3.17;;
30681;SDS011;17439;48.092;11.842;2024-01-27T14:37:59;17.13;;;4.57;;